Levack, Canada
Current Conditions -  °F | °C
As of 6:00 AM on Sunday 23 Nov 2014 (Local Time) from CYSB Reporting Station
Drizzle Drizzle  
Wind Chill: 29°   Ceiling: 100
Heat Index: 36°   Visibility: 0.37mi
Dew Point: 34°   Wind: 8mph
Humidity: 93%   Direction: 180°S
Pressure: 29.83"   Gusts: NA
Location:  46.63°N, 81.38°W
Report Text: CYSB 231100Z 18007KT 3/8SM R22/1600FT/N -DZ FG VV001 02/01 A2983 RMK FG8 SLP116
Loading
Personal Weather Stations






























Interactive Weather Map New forecast layout! Learn more

10-Day Weather Forecast

Advertisements
Track Severe Weather on mobile